Time;durP1;ratioP1;P1;durP2;ratioP2;P2;SDS_P1;SDS_P2;PMS_P1;PMS_P2;Temp;Humidity;BMP_temperature;BMP_pressure;BME280_temperature;BME280_humidity;BME280_pressure;Samples;Min_cycle;Max_cycle;Signal;HPM_P1;HPM_P2
2023/05/06 00:02:11;;;;;;;;;;;;;;;18.66;38.18;100626.06;4948101;27;98402;-69
2023/05/06 00:04:39;;;;;;;;;;;;;;;18.64;38.36;100620.94;4948606;27;98649;-69
2023/05/06 00:07:06;;;;;;;;;;;;;;;18.62;38.16;100620.44;4960239;27;99529;-70
2023/05/06 00:09:33;;;;;;;;;;;;;;;18.59;38.35;100612.13;4946414;27;98073;-71
2023/05/06 00:11:59;;;;;;;;;;;;;;;18.58;38.14;100615.94;4941705;27;99642;-70
2023/05/06 00:14:26;;;;;;;;;;;;;;;18.55;38.29;100611.13;4944380;27;99962;-70
2023/05/06 00:16:53;;;;;;;;;;;;;;;18.52;38.28;100615.28;4959086;27;98163;-70
2023/05/06 00:19:20;;;;;;;;;;;;;;;18.51;38.31;100621.88;4946377;27;100113;-70
2023/05/06 00:21:47;;;;;;;;;;;;;;;18.49;38.32;100621.38;4957850;27;99204;-70
2023/05/06 00:24:14;;;;;;;;;;;;;;;18.48;38.36;100621.72;4960146;27;98227;-70
2023/05/06 00:26:41;;;;;;;;;;;;;;;18.46;38.28;100618.47;4956817;27;99946;-69
2023/05/06 00:29:07;;;;;;;;;;;;;;;18.43;38.51;100611.75;4954963;27;98302;-70
2023/05/06 00:31:34;;;;;;;;;;;;;;;18.41;38.49;100616.69;4974368;27;98059;-70
2023/05/06 00:34:02;;;;;;;;;;;;;;;18.40;38.42;100618.63;4944841;27;98232;-71
2023/05/06 00:36:30;;;;;;;;;;;;;;;18.38;38.57;100611.88;4959312;27;98115;-70
2023/05/06 00:38:56;;;;;;;;;;;;;;;18.36;38.31;100606.75;4959475;27;98143;-71
2023/05/06 00:41:25;;;;;;;;;;;;;;;18.35;38.52;100607.03;4946148;27;99205;-71
2023/05/06 00:43:52;;;;;;;;;;;;;;;18.33;38.48;100610.09;4946688;27;102001;-71
2023/05/06 00:46:19;;;;;;;;;;;;;;;18.31;38.33;100619.72;4945737;27;98779;-71
2023/05/06 00:48:46;;;;;;;;;;;;;;;18.28;38.41;100604.00;4947877;27;97979;-71
2023/05/06 00:51:13;;;;;;;;;;;;;;;18.24;38.43;100609.28;4947463;27;98373;-72
2023/05/06 00:53:40;;;;;;;;;;;;;;;18.20;38.49;100612.94;4962070;27;99562;-70
2023/05/06 00:56:06;;;;;;;;;;;;;;;18.16;38.37;100618.22;4963585;27;99976;-70
2023/05/06 00:58:34;;;;;;;;;;;;;;;18.12;38.51;100609.88;4945682;27;98088;-70
2023/05/06 01:01:00;;;;;;;;;;;;;;;18.09;38.45;100605.03;4937903;27;98018;-70
2023/05/06 01:03:27;;;;;;;;;;;;;;;18.07;38.35;100609.19;4946015;27;98685;-69
2023/05/06 01:06:28;;;;;;;;;;;;;;;18.05;38.44;100600.53;4961241;27;98300;-68
2023/05/06 01:09:13;;;;;;;;;;;;;;;18.01;38.51;100594.09;4989269;27;98409;-68
2023/05/06 01:11:52;;;;;;;;;;;;;;;17.95;38.44;100587.94;4976315;27;98013;-68
2023/05/06 01:14:31;;;;;;;;;;;;;;;17.95;38.66;100592.59;4942294;27;98215;-68
2023/05/06 01:16:59;;;;;;;;;;;;;;;17.93;38.58;100589.41;4958669;27;97995;-68
2023/05/06 01:19:35;;;;;;;;;;;;;;;17.89;38.50;100583.75;4957413;27;98271;-68
2023/05/06 01:22:02;;;;;;;;;;;;;;;17.87;38.70;100583.25;4957443;27;98144;-68
2023/05/06 01:24:41;;;;;;;;;;;;;;;17.84;38.68;100581.16;4961807;27;98096;-68
2023/05/06 01:27:08;;;;;;;;;;;;;;;17.79;38.71;100587.53;4962294;27;99605;-69
2023/05/06 01:29:36;;;;;;;;;;;;;;;17.78;38.56;100585.16;4964756;27;98189;-68
2023/05/06 01:32:18;;;;;;;;;;;;;;;17.76;38.69;100585.44;4961467;27;98318;-69
2023/05/06 01:35:10;;;;;;;;;;;;;;;17.74;38.58;100578.69;4977603;27;98030;-69
2023/05/06 01:37:36;;;;;;;;;;;;;;;17.72;38.73;100573.53;4968727;27;98939;-69
2023/05/06 01:40:04;;;;;;;;;;;;;;;17.69;38.82;100571.44;4977556;27;97960;-68
2023/05/06 01:42:31;;;;;;;;;;;;;;;17.66;38.63;100561.97;4962344;27;98044;-69
2023/05/06 01:44:57;;;;;;;;;;;;;;;17.64;38.63;100563.38;4948159;27;98443;-69
2023/05/06 01:47:24;;;;;;;;;;;;;;;17.61;38.65;100559.38;4955571;27;98437;-69
2023/05/06 01:49:51;;;;;;;;;;;;;;;17.60;38.70;100556.94;4944766;27;98517;-69
2023/05/06 01:52:17;;;;;;;;;;;;;;;17.57;38.80;100561.13;4946720;27;100012;-69
2023/05/06 01:54:44;;;;;;;;;;;;;;;17.56;38.81;100572.31;4958802;27;98122;-68
2023/05/06 01:57:10;;;;;;;;;;;;;;;17.54;38.62;100561.72;4942363;27;99965;-68
2023/05/06 01:59:37;;;;;;;;;;;;;;;17.53;38.71;100564.78;4945335;27;98211;-68
2023/05/06 02:02:05;;;;;;;;;;;;;;;17.51;38.78;100562.34;4936242;27;98105;-67
2023/05/06 02:04:32;;;;;;;;;;;;;;;17.49;38.70;100561.03;4946000;27;98735;-69
2023/05/06 02:06:59;;;;;;;;;;;;;;;17.47;38.78;100568.75;4946598;27;98527;-68
2023/05/06 02:09:26;;;;;;;;;;;;;;;17.45;38.71;100560.88;4944331;27;98325;-68
2023/05/06 02:11:53;;;;;;;;;;;;;;;17.43;38.93;100563.91;4959142;27;99412;-68
2023/05/06 02:14:19;;;;;;;;;;;;;;;17.41;38.70;100565.34;4945767;27;98423;-68
2023/05/06 02:16:45;;;;;;;;;;;;;;;17.40;38.72;100566.44;4953296;27;98223;-67
2023/05/06 02:19:12;;;;;;;;;;;;;;;17.39;38.77;100571.09;4944584;27;99665;-67
2023/05/06 02:21:39;;;;;;;;;;;;;;;17.35;38.80;100561.94;4955641;27;98250;-68
2023/05/06 02:24:07;;;;;;;;;;;;;;;17.36;38.76;100560.00;4949494;27;98141;-69
2023/05/06 02:26:34;;;;;;;;;;;;;;;17.33;38.89;100547.00;4969183;27;100265;-67
2023/05/06 02:29:01;;;;;;;;;;;;;;;17.32;38.87;100551.66;4946188;27;98207;-68
2023/05/06 02:31:28;;;;;;;;;;;;;;;17.31;38.86;100560.13;4965876;27;98836;-68
2023/05/06 02:33:56;;;;;;;;;;;;;;;17.28;38.81;100561.56;4961364;27;98177;-67
2023/05/06 02:36:22;;;;;;;;;;;;;;;17.27;38.78;100557.22;4949741;27;99167;-68
2023/05/06 02:38:49;;;;;;;;;;;;;;;17.26;38.79;100554.81;4964462;27;98020;-68
2023/05/06 02:41:15;;;;;;;;;;;;;;;17.23;38.94;100545.34;4952053;27;98042;-69
2023/05/06 02:43:42;;;;;;;;;;;;;;;17.23;39.01;100548.06;4952146;27;100257;-69
2023/05/06 02:46:11;;;;;;;;;;;;;;;17.21;39.00;100544.84;4967229;27;99007;-69
2023/05/06 02:48:37;;;;;;;;;;;;;;;17.19;38.86;100538.91;4967415;27;98166;-70
2023/05/06 02:51:05;;;;;;;;;;;;;;;17.18;38.94;100540.81;4961823;27;98065;-70
2023/05/06 02:53:33;;;;;;;;;;;;;;;17.17;38.94;100532.94;4944096;27;98162;-70
2023/05/06 02:56:01;;;;;;;;;;;;;;;17.15;38.87;100533.28;4964411;27;98384;-71
2023/05/06 02:58:28;;;;;;;;;;;;;;;17.15;38.98;100540.63;4977670;27;100053;-71
2023/05/06 03:00:55;;;;;;;;;;;;;;;17.13;38.84;100532.78;4960457;27;98354;-71
2023/05/06 03:03:21;;;;;;;;;;;;;;;17.12;38.88;100533.88;4950743;27;98188;-71
2023/05/06 03:05:48;;;;;;;;;;;;;;;17.11;39.04;100532.28;4953231;27;102938;-71
2023/05/06 03:08:16;;;;;;;;;;;;;;;17.09;38.94;100531.78;4947342;27;97985;-71
2023/05/06 03:10:43;;;;;;;;;;;;;;;17.09;38.94;100528.25;4947264;27;98028;-72
2023/05/06 03:13:10;;;;;;;;;;;;;;;17.07;39.09;100514.94;4943486;27;99779;-71
2023/05/06 03:15:36;;;;;;;;;;;;;;;17.06;39.03;100520.72;4948705;27;99472;-71
2023/05/06 03:18:03;;;;;;;;;;;;;;;17.05;39.00;100530.78;4967188;27;100288;-70
2023/05/06 03:20:30;;;;;;;;;;;;;;;17.04;39.08;100531.91;4981785;27;98369;-70
2023/05/06 03:22:56;;;;;;;;;;;;;;;17.04;39.00;100531.91;4959083;27;98605;-70
2023/05/06 03:25:24;;;;;;;;;;;;;;;17.03;39.18;100518.59;4982554;27;98269;-70
2023/05/06 03:27:51;;;;;;;;;;;;;;;17.02;39.12;100525.97;4961696;27;98084;-71
2023/05/06 03:30:19;;;;;;;;;;;;;;;17.01;39.24;100520.81;4951327;27;100424;-71
2023/05/06 03:32:47;;;;;;;;;;;;;;;17.01;39.04;100523.53;4964151;27;98091;-71
2023/05/06 03:35:14;;;;;;;;;;;;;;;16.99;39.05;100523.06;4964247;27;98123;-72
2023/05/06 03:37:41;;;;;;;;;;;;;;;16.98;39.13;100511.38;4947329;27;98258;-71
2023/05/06 03:40:08;;;;;;;;;;;;;;;16.97;39.23;100515.19;4960865;27;97926;-71
2023/05/06 03:42:35;;;;;;;;;;;;;;;16.97;39.14;100517.09;4959160;27;98449;-71
2023/05/06 03:45:02;;;;;;;;;;;;;;;16.96;39.07;100520.94;4961219;27;97951;-72
2023/05/06 03:47:28;;;;;;;;;;;;;;;16.96;39.20;100507.34;4947329;27;98441;-71
2023/05/06 03:49:55;;;;;;;;;;;;;;;16.95;39.14;100509.25;4962615;27;100086;-72
2023/05/06 03:52:23;;;;;;;;;;;;;;;16.95;39.16;100508.47;4974379;27;98386;-72
2023/05/06 03:54:49;;;;;;;;;;;;;;;16.93;39.14;100509.53;4948366;27;98201;-72
2023/05/06 03:57:16;;;;;;;;;;;;;;;16.93;39.24;100506.81;4942500;27;99583;-73
2023/05/06 03:59:43;;;;;;;;;;;;;;;16.93;39.13;100516.91;4948199;27;97839;-72
2023/05/06 04:02:10;;;;;;;;;;;;;;;16.93;39.15;100516.91;4947193;27;98210;-72
2023/05/06 04:04:37;;;;;;;;;;;;;;;16.92;39.15;100518.03;4956931;27;98217;-72
2023/05/06 04:07:03;;;;;;;;;;;;;;;16.91;39.24;100509.06;4951272;27;99955;-71
2023/05/06 04:09:32;;;;;;;;;;;;;;;16.91;39.22;100511.00;4945867;27;98430;-72
2023/05/06 04:11:58;;;;;;;;;;;;;;;16.91;39.21;100502.81;4961894;27;98074;-71
2023/05/06 04:14:25;;;;;;;;;;;;;;;16.90;39.08;100510.19;4948132;27;99777;-72
2023/05/06 04:16:52;;;;;;;;;;;;;;;16.90;39.07;100515.63;4959924;27;98381;-72
2023/05/06 04:19:19;;;;;;;;;;;;;;;16.89;39.40;100515.91;4948373;27;98306;-71
2023/05/06 04:21:48;;;;;;;;;;;;;;;16.90;39.24;100523.81;4941253;27;99514;-71
2023/05/06 04:24:15;;;;;;;;;;;;;;;16.91;39.08;100522.69;4955288;27;98041;-70
2023/05/06 04:26:42;;;;;;;;;;;;;;;16.91;39.25;100521.88;4971871;27;98263;-71
2023/05/06 04:29:09;;;;;;;;;;;;;;;16.91;39.07;100516.44;4979164;27;98802;-69
2023/05/06 04:31:36;;;;;;;;;;;;;;;16.92;39.29;100529.72;4968415;27;98959;-70
2023/05/06 04:34:03;;;;;;;;;;;;;;;16.92;39.10;100527.00;4962477;27;98142;-70
2023/05/06 04:36:29;;;;;;;;;;;;;;;16.92;39.34;100537.88;4944679;27;99304;-71
2023/05/06 04:38:57;;;;;;;;;;;;;;;16.96;39.12;100526.41;4946750;27;98098;-71
2023/05/06 04:41:24;;;;;;;;;;;;;;;16.97;39.21;100528.78;4961537;27;99357;-71
2023/05/06 04:43:51;;;;;;;;;;;;;;;17.01;39.13;100524.34;4943404;27;102045;-71
2023/05/06 04:46:18;;;;;;;;;;;;;;;17.08;39.19;100530.16;4945903;27;97989;-71
2023/05/06 04:48:45;;;;;;;;;;;;;;;17.16;39.24;100531.34;4963130;27;98420;-71
2023/05/06 04:51:12;;;;;;;;;;;;;;;17.24;39.29;100527.06;4947979;27;98124;-70
2023/05/06 04:53:39;;;;;;;;;;;;;;;17.31;39.17;100528.25;4943090;27;98330;-71
2023/05/06 04:56:07;;;;;;;;;;;;;;;17.37;39.12;100534.34;4963590;27;98307;-71
2023/05/06 04:58:35;;;;;;;;;;;;;;;17.39;39.13;100535.66;4977836;27;98241;-71
2023/05/06 05:01:04;;;;;;;;;;;;;;;17.43;39.22;100522.22;4946617;27;98271;-71
2023/05/06 05:03:32;;;;;;;;;;;;;;;17.46;39.33;100518.09;4954512;27;98656;-71
2023/05/06 05:06:00;;;;;;;;;;;;;;;17.46;39.20;100529.00;4961634;27;100522;-73
2023/05/06 05:08:28;;;;;;;;;;;;;;;17.46;39.30;100531.72;4945642;27;98121;-72
2023/05/06 05:10:56;;;;;;;;;;;;;;;17.49;39.30;100531.06;4956198;27;98490;-72
2023/05/06 05:13:22;;;;;;;;;;;;;;;17.53;39.17;100530.16;4959579;27;98500;-72
2023/05/06 05:15:53;;;;;;;;;;;;;;;17.55;39.18;100533.34;4945928;27;98548;-72
2023/05/06 05:18:19;;;;;;;;;;;;;;;17.56;39.46;100539.59;4945165;27;98149;-71
2023/05/06 05:20:47;;;;;;;;;;;;;;;17.59;39.36;100547.16;4961955;27;98176;-71
2023/05/06 05:23:14;;;;;;;;;;;;;;;17.59;39.35;100542.50;4942264;27;98158;-71
2023/05/06 05:25:41;;;;;;;;;;;;;;;17.56;39.47;100551.31;4943421;27;98808;-71
2023/05/06 05:28:07;;;;;;;;;;;;;;;17.55;39.46;100548.91;4941119;27;98296;-71
2023/05/06 05:30:34;;;;;;;;;;;;;;;17.58;39.31;100548.28;4938108;27;99653;-72
2023/05/06 05:33:02;;;;;;;;;;;;;;;17.59;39.22;100539.00;4951986;27;98385;-72
2023/05/06 05:35:28;;;;;;;;;;;;;;;17.60;39.35;100541.38;4941451;27;98501;-72
2023/05/06 05:37:57;;;;;;;;;;;;;;;17.62;39.39;100552.00;4942613;27;98002;-73
2023/05/06 05:40:27;;;;;;;;;;;;;;;17.59;39.31;100550.69;4952362;27;98405;-73
2023/05/06 05:42:58;;;;;;;;;;;;;;;17.62;39.41;100541.09;4942665;27;98868;-73
2023/05/06 05:45:25;;;;;;;;;;;;;;;17.64;39.41;100541.56;4957509;27;98700;-74
2023/05/06 05:47:52;;;;;;;;;;;;;;;17.64;39.31;100545.13;4935426;27;98241;-75
2023/05/06 05:50:19;;;;;;;;;;;;;;;17.63;39.48;100545.41;4953210;27;98494;-75
2023/05/06 05:52:47;;;;;;;;;;;;;;;17.61;39.44;100550.41;4934360;27;98623;-75
2023/05/06 05:55:17;;;;;;;;;;;;;;;17.58;39.48;100551.81;4941707;27;98045;-75
2023/05/06 05:57:43;;;;;;;;;;;;;;;17.56;39.46;100556.75;4939754;27;99143;-75
2023/05/06 06:00:10;;;;;;;;;;;;;;;17.57;39.47;100554.88;4940599;27;98056;-75
2023/05/06 06:02:37;;;;;;;;;;;;;;;17.57;39.53;100549.41;4939982;27;98641;-76
2023/05/06 06:05:09;;;;;;;;;;;;;;;17.60;39.48;100556.94;4936881;27;98172;-76
2023/05/06 06:07:37;;;;;;;;;;;;;;;17.61;39.41;100558.56;4956461;27;98535;-76
2023/05/06 06:10:04;;;;;;;;;;;;;;;17.62;39.36;100562.91;4940461;27;98590;-76
2023/05/06 06:12:30;;;;;;;;;;;;;;;17.64;39.53;100558.75;4914292;28;98883;-76
2023/05/06 06:14:57;;;;;;;;;;;;;;;17.67;39.33;100562.75;4935496;28;97948;-76
2023/05/06 06:17:26;;;;;;;;;;;;;;;17.69;39.37;100557.00;4961455;27;101127;-76
2023/05/06 06:19:56;;;;;;;;;;;;;;;17.72;39.43;100573.53;4944937;27;99200;-76
2023/05/06 06:22:23;;;;;;;;;;;;;;;17.74;39.27;100565.84;4931612;28;99734;-77
2023/05/06 06:24:50;;;;;;;;;;;;;;;17.80;39.24;100566.53;4960274;28;98204;-77
2023/05/06 06:27:17;;;;;;;;;;;;;;;17.84;39.36;100556.63;4963372;28;98105;-76
2023/05/06 06:29:46;;;;;;;;;;;;;;;17.87;39.29;100567.69;4948303;28;98177;-77
2023/05/06 06:32:14;;;;;;;;;;;;;;;17.89;39.18;100561.94;4933001;28;98413;-77
2023/05/06 06:34:41;;;;;;;;;;;;;;;17.92;39.39;100569.50;4928981;28;98279;-77
2023/05/06 06:37:09;;;;;;;;;;;;;;;17.92;39.44;100574.97;4933828;28;98092;-77
2023/05/06 06:39:36;;;;;;;;;;;;;;;17.93;39.32;100579.28;4950595;28;98344;-76
2023/05/06 06:42:03;;;;;;;;;;;;;;;17.97;39.17;100582.19;4914054;28;98433;-77
2023/05/06 06:44:30;;;;;;;;;;;;;;;18.02;39.12;100580.13;4935240;28;99486;-77
2023/05/06 06:46:57;;;;;;;;;;;;;;;18.04;39.04;100586.09;4947922;28;98231;-77
2023/05/06 06:49:25;;;;;;;;;;;;;;;18.07;39.22;100590.09;4948065;28;98148;-77
2023/05/06 06:51:52;;;;;;;;;;;;;;;18.11;39.12;100593.78;4927500;27;99998;-78
2023/05/06 06:54:18;;;;;;;;;;;;;;;18.15;39.17;100592.03;4931337;28;98055;-78
2023/05/06 06:56:45;;;;;;;;;;;;;;;18.20;39.09;100593.84;4946492;28;99001;-78
2023/05/06 06:59:12;;;;;;;;;;;;;;;18.21;39.14;100604.44;4949605;28;98251;-79
2023/05/06 07:01:41;;;;;;;;;;;;;;;18.25;39.16;100607.34;4961564;27;98246;-79
2023/05/06 07:04:09;;;;;;;;;;;;;;;18.28;39.12;100604.00;4962906;27;99160;-79
2023/05/06 07:06:36;;;;;;;;;;;;;;;18.30;39.12;100602.53;4958772;27;98185;-78
2023/05/06 07:09:02;;;;;;;;;;;;;;;18.30;39.13;100604.47;4948876;28;98331;-79
2023/05/06 07:11:29;;;;;;;;;;;;;;;18.28;39.19;100606.72;4948520;28;98108;-79
2023/05/06 07:13:57;;;;;;;;;;;;;;;18.27;39.25;100608.63;4930811;28;98138;-79
2023/05/06 07:16:24;;;;;;;;;;;;;;;18.26;39.47;100614.41;4920282;28;98181;-79
2023/05/06 07:18:53;;;;;;;;;;;;;;;18.26;39.19;100620.66;4933122;28;98062;-79
2023/05/06 07:21:20;;;;;;;;;;;;;;;18.31;39.35;100614.25;4950177;28;99556;-80
2023/05/06 07:23:47;;;;;;;;;;;;;;;18.35;39.22;100613.34;4919672;28;98187;-79
2023/05/06 07:26:15;;;;;;;;;;;;;;;18.40;39.08;100613.19;4935062;28;98082;-79
2023/05/06 07:28:43;;;;;;;;;;;;;;;18.45;39.25;100614.16;4948914;28;98287;-80
2023/05/06 07:31:10;;;;;;;;;;;;;;;18.52;39.08;100611.78;4915930;28;98666;-80
2023/05/06 07:33:37;;;;;;;;;;;;;;;18.57;39.07;100622.53;4920798;28;98519;-80
2023/05/06 07:36:04;;;;;;;;;;;;;;;18.54;39.22;100620.44;4934586;28;98239;-80
2023/05/06 07:38:30;;;;;;;;;;;;;;;18.57;39.27;100619.81;4938268;28;99341;-80
2023/05/06 07:40:57;;;;;;;;;;;;;;;18.55;39.24;100608.38;4954923;28;98282;-80
2023/05/06 07:43:25;;;;;;;;;;;;;;;18.50;39.45;100617.53;4922624;28;99784;-79
2023/05/06 07:45:57;;;;;;;;;;;;;;;18.51;39.38;100626.50;4950368;28;98557;-79
2023/05/06 07:48:24;;;;;;;;;;;;;;;18.51;39.31;100627.34;4951949;28;98095;-79
2023/05/06 07:50:52;;;;;;;;;;;;;;;18.58;39.38;100629.59;4936526;28;98171;-79
2023/05/06 07:53:19;;;;;;;;;;;;;;;18.62;39.23;100636.81;4936083;28;98969;-80
2023/05/06 07:55:46;;;;;;;;;;;;;;;18.66;39.27;100639.72;4936259;28;98604;-80
2023/05/06 07:58:13;;;;;;;;;;;;;;;18.78;39.17;100637.22;4919751;28;98302;-80
2023/05/06 08:00:39;;;;;;;;;;;;;;;18.95;38.99;100635.66;4906263;28;98988;-80
2023/05/06 08:03:06;;;;;;;;;;;;;;;19.03;38.94;100641.13;4930985;28;98361;-80
2023/05/06 08:05:32;;;;;;;;;;;;;;;19.07;39.02;100641.28;4919124;28;98138;-81
2023/05/06 08:08:04;;;;;;;;;;;;;;;19.11;39.03;100647.72;4937358;28;98478;-80
2023/05/06 08:10:30;;;;;;;;;;;;;;;19.17;38.83;100646.44;4950180;28;97937;-80
2023/05/06 08:12:59;;;;;;;;;;;;;;;19.33;38.92;100650.28;4952144;28;98218;-80
2023/05/06 08:15:25;;;;;;;;;;;;;;;19.46;38.95;100656.75;4936149;28;98006;-81
2023/05/06 08:17:57;;;;;;;;;;;;;;;19.40;39.15;100662.69;4940133;28;101841;-80
2023/05/06 08:20:25;;;;;;;;;;;;;;;19.34;38.99;100662.06;4919708;28;98421;-80
2023/05/06 08:22:52;;;;;;;;;;;;;;;19.29;39.24;100664.91;4923256;28;98434;-80
2023/05/06 08:25:20;;;;;;;;;;;;;;;19.27;39.11;100665.25;4919605;28;98315;-80
2023/05/06 08:27:47;;;;;;;;;;;;;;;19.20;39.32;100667.66;4919015;28;98186;-81
2023/05/06 08:30:15;;;;;;;;;;;;;;;19.12;39.27;100668.44;4921317;28;98290;-80
2023/05/06 08:32:42;;;;;;;;;;;;;;;19.07;39.61;100685.00;4935481;28;99328;-80
2023/05/06 08:35:10;;;;;;;;;;;;;;;19.02;39.39;100687.88;4932987;28;98068;-79
2023/05/06 08:37:39;;;;;;;;;;;;;;;18.96;39.58;100689.16;4919167;28;99210;-80
2023/05/06 08:40:33;;;;;;;;;;;;;;;18.88;39.50;100693.47;4919520;28;99589;-80
2023/05/06 08:43:04;;;;;;;;;;;;;;;18.83;39.72;100699.09;4949538;28;98669;-79
2023/05/06 08:45:32;;;;;;;;;;;;;;;18.82;39.66;100700.19;4919851;28;98485;-79
2023/05/06 08:48:02;;;;;;;;;;;;;;;18.84;39.44;100706.94;4931045;28;98380;-79
2023/05/06 08:50:30;;;;;;;;;;;;;;;18.87;39.39;100708.25;4916192;28;98169;-79
2023/05/06 08:52:57;;;;;;;;;;;;;;;18.95;39.42;100703.94;4937654;28;99474;-79
2023/05/06 08:55:24;;;;;;;;;;;;;;;18.97;39.26;100715.34;4934539;28;100580;-80
2023/05/06 08:57:51;;;;;;;;;;;;;;;19.07;39.22;100713.13;4893244;28;99039;-80
2023/05/06 09:00:18;;;;;;;;;;;;;;;19.12;39.12;100721.16;4916361;28;99437;-79
2023/05/06 09:02:44;;;;;;;;;;;;;;;19.12;39.46;100728.56;4921062;28;98975;-79
2023/05/06 09:05:11;;;;;;;;;;;;;;;19.14;39.36;100723.59;4920430;28;97985;-79
2023/05/06 09:07:37;;;;;;;;;;;;;;;19.17;39.20;100733.06;4947963;28;99940;-79
2023/05/06 09:10:17;;;;;;;;;;;;;;;19.09;39.45;100719.06;4946427;28;99041;-80
2023/05/06 09:12:44;;;;;;;;;;;;;;;19.05;39.51;100714.56;4953963;27;99124;-79
2023/05/06 09:15:13;;;;;;;;;;;;;;;19.12;39.37;100725.81;4953560;28;98006;-80
2023/05/06 09:17:40;;;;;;;;;;;;;;;19.19;39.23;100731.63;4953119;28;97947;-80
2023/05/06 09:20:10;;;;;;;;;;;;;;;19.18;39.43;100726.47;4938383;28;98579;-80
2023/05/06 09:22:38;;;;;;;;;;;;;;;19.18;39.50;100721.00;4954040;28;98410;-79
2023/05/06 09:25:05;;;;;;;;;;;;;;;19.19;39.35;100725.34;4940082;27;98079;-79
2023/05/06 09:27:33;;;;;;;;;;;;;;;19.16;39.30;100732.25;4951574;28;99965;-79
2023/05/06 09:30:01;;;;;;;;;;;;;;;19.12;39.51;100729.34;4938641;28;98201;-80
2023/05/06 09:32:31;;;;;;;;;;;;;;;19.12;39.47;100736.75;4938272;28;99344;-80
2023/05/06 09:34:58;;;;;;;;;;;;;;;19.17;39.43;100743.97;4943274;27;98444;-80
2023/05/06 09:37:27;;;;;;;;;;;;;;;19.22;39.46;100741.13;4939459;28;98769;-80
2023/05/06 09:39:57;;;;;;;;;;;;;;;19.30;39.31;100743.06;4954560;28;99487;-80
2023/05/06 09:42:30;;;;;;;;;;;;;;;19.36;39.05;100745.31;4942098;28;99760;-80
2023/05/06 09:45:00;;;;;;;;;;;;;;;19.48;39.38;100735.69;4938689;27;98095;-80
2023/05/06 09:47:36;;;;;;;;;;;;;;;19.53;39.30;100746.44;4944618;27;99206;-80
2023/05/06 09:50:03;;;;;;;;;;;;;;;19.50;39.26;100752.56;4953479;27;98360;-79
2023/05/06 09:52:32;;;;;;;;;;;;;;;19.48;39.24;100752.88;4959245;27;99842;-80
2023/05/06 09:55:00;;;;;;;;;;;;;;;19.55;39.09;100750.47;4940174;28;98957;-81
2023/05/06 09:57:26;;;;;;;;;;;;;;;19.67;39.23;100754.53;4940135;27;98748;-80
2023/05/06 10:00:05;;;;;;;;;;;;;;;19.69;39.13;100755.84;4939399;28;98682;-80
2023/05/06 10:02:34;;;;;;;;;;;;;;;19.60;39.52;100760.44;4955608;28;98339;-79
2023/05/06 10:05:04;;;;;;;;;;;;;;;19.60;39.48;100765.91;4941447;27;100680;-79
2023/05/06 10:07:32;;;;;;;;;;;;;;;19.66;39.28;100769.34;4954074;28;98425;-80
2023/05/06 10:09:58;;;;;;;;;;;;;;;19.62;39.55;100771.91;4939141;28;98721;-80
2023/05/06 10:12:27;;;;;;;;;;;;;;;19.58;39.37;100768.19;4950143;28;99045;-80
2023/05/06 10:14:55;;;;;;;;;;;;;;;19.55;39.52;100764.16;4940825;28;100286;-80
2023/05/06 10:17:24;;;;;;;;;;;;;;;19.56;39.38;100764.94;4938786;28;98518;-80
2023/05/06 10:19:54;;;;;;;;;;;;;;;19.51;39.63;100770.56;4956681;28;98853;-80
2023/05/06 10:22:41;;;;;;;;;;;;;;;19.49;39.48;100770.06;4964579;27;99101;-80
2023/05/06 10:25:28;;;;;;;;;;;;;;;19.46;39.43;100771.53;4985015;27;98333;-79
2023/05/06 10:28:00;;;;;;;;;;;;;;;19.53;39.40;100768.31;4952686;28;98765;-80
2023/05/06 10:30:27;;;;;;;;;;;;;;;19.59;39.36;100761.56;4935276;28;98665;-80
2023/05/06 10:32:58;;;;;;;;;;;;;;;19.59;39.38;100765.09;4937952;28;99284;-80
2023/05/06 10:35:41;;;;;;;;;;;;;;;19.53;39.51;100768.31;4938579;28;98303;-79
2023/05/06 10:38:53;;;;;;;;;;;;;;;19.58;39.35;100774.44;4971243;28;98631;-80
2023/05/06 10:41:26;;;;;;;;;;;;;;;19.57;39.60;100770.09;4942251;28;98058;-80
2023/05/06 10:43:56;;;;;;;;;;;;;;;19.57;39.33;100761.06;4941643;28;101560;-80
2023/05/06 10:46:31;;;;;;;;;;;;;;;19.51;39.52;100765.91;4954450;28;97821;-79
2023/05/06 10:49:10;;;;;;;;;;;;;;;19.55;39.48;100766.06;4940753;27;99245;-80
2023/05/06 10:51:42;;;;;;;;;;;;;;;19.56;39.28;100768.47;4983145;27;100631;-79
2023/05/06 10:54:18;;;;;;;;;;;;;;;19.58;39.62;100774.44;4956798;28;100248;-79
2023/05/06 10:56:48;;;;;;;;;;;;;;;19.55;39.48;100772.34;4967886;28;98500;-79
2023/05/06 10:59:28;;;;;;;;;;;;;;;19.56;39.52;100778.63;4969614;28;99907;-80
2023/05/06 11:02:08;;;;;;;;;;;;;;;19.60;39.41;100782.31;4940968;28;98982;-80
2023/05/06 11:04:37;;;;;;;;;;;;;;;19.58;39.48;100779.91;4955205;28;99313;-80
2023/05/06 11:07:09;;;;;;;;;;;;;;;19.56;39.36;100784.88;4970721;27;98648;-80
2023/05/06 11:10:05;;;;;;;;;;;;;;;19.56;39.49;100778.63;4956363;28;100441;-80
2023/05/06 11:12:51;;;;;;;;;;;;;;;19.53;39.67;100787.44;4948535;28;98697;-81
2023/05/06 11:15:37;;;;;;;;;;;;;;;19.55;39.57;100793.41;4960361;28;101286;-80
2023/05/06 11:18:30;;;;;;;;;;;;;;;19.54;39.51;100780.88;4948738;28;99448;-80
2023/05/06 11:21:01;;;;;;;;;;;;;;;19.58;39.48;100782.66;4968049;28;99062;-79
2023/05/06 11:23:50;;;;;;;;;;;;;;;19.59;39.50;100783.44;4967804;28;98069;-80
2023/05/06 11:26:20;;;;;;;;;;;;;;;19.70;39.36;100786.72;4971225;27;99008;-80
2023/05/06 11:28:48;;;;;;;;;;;;;;;19.66;39.71;100796.69;4941809;28;98780;-80
2023/05/06 11:31:16;;;;;;;;;;;;;;;19.72;39.37;100793.44;4958142;28;99538;-80
2023/05/06 11:33:54;;;;;;;;;;;;;;;19.67;39.67;100795.56;4957273;28;98644;-79
2023/05/06 11:36:21;;;;;;;;;;;;;;;19.66;39.64;100807.63;4940264;28;99592;-80
2023/05/06 11:38:50;;;;;;;;;;;;;;;19.64;39.65;100807.91;4956717;28;98360;-80
2023/05/06 11:41:16;;;;;;;;;;;;;;;19.57;39.50;100811.13;4956451;28;98079;-80
2023/05/06 11:43:50;;;;;;;;;;;;;;;19.55;39.56;100807.88;4956647;27;98483;-80
2023/05/06 11:46:21;;;;;;;;;;;;;;;19.57;39.65;100811.13;4957193;28;101268;-80
2023/05/06 11:48:49;;;;;;;;;;;;;;;19.59;39.67;100817.06;4932959;28;100004;-80
2023/05/06 11:51:25;;;;;;;;;;;;;;;19.61;39.55;100820.31;4940708;28;98191;-80
2023/05/06 11:54:08;;;;;;;;;;;;;;;19.66;39.57;100827.56;4954359;27;99643;-80
2023/05/06 11:56:55;;;;;;;;;;;;;;;19.69;39.55;100831.56;4967706;27;99554;-79
2023/05/06 11:59:36;;;;;;;;;;;;;;;19.65;39.61;100834.16;4950128;28;98135;-80
2023/05/06 12:02:04;;;;;;;;;;;;;;;19.65;39.66;100834.16;4974694;28;98845;-80
2023/05/06 12:04:44;;;;;;;;;;;;;;;19.63;39.58;100841.06;4957383;28;98399;-80
2023/05/06 12:07:13;;;;;;;;;;;;;;;19.61;39.54;100838.63;4956506;28;98464;-80
2023/05/06 12:09:45;;;;;;;;;;;;;;;19.64;39.78;100837.19;4939781;28;98355;-78
2023/05/06 12:12:14;;;;;;;;;;;;;;;19.65;39.67;100836.91;4941168;28;98918;-79
2023/05/06 12:14:43;;;;;;;;;;;;;;;19.60;39.75;100837.78;4967781;27;98341;-78
2023/05/06 12:17:09;;;;;;;;;;;;;;;19.50;39.97;100849.06;4940247;28;98102;-79
2023/05/06 12:19:40;;;;;;;;;;;;;;;19.45;39.83;100848.38;4953866;28;98508;-79
2023/05/06 12:22:23;;;;;;;;;;;;;;;19.46;39.98;100852.75;4955618;28;98986;-79
2023/05/06 12:24:50;;;;;;;;;;;;;;;19.49;39.85;100854.81;4939843;28;98310;-78
2023/05/06 12:27:33;;;;;;;;;;;;;;;19.49;39.76;100855.66;4942663;28;97944;-79
2023/05/06 12:30:00;;;;;;;;;;;;;;;19.52;39.82;100856.91;4956836;28;98920;-78
2023/05/06 12:32:28;;;;;;;;;;;;;;;19.50;39.81;100861.91;4939864;28;99088;-79
2023/05/06 12:34:57;;;;;;;;;;;;;;;19.44;39.77;100863.16;4968448;27;98897;-78
2023/05/06 12:37:24;;;;;;;;;;;;;;;19.44;39.76;100868.63;4951595;28;98031;-78
2023/05/06 12:39:53;;;;;;;;;;;;;;;19.48;39.81;100870.41;4939739;28;98149;-78
2023/05/06 12:42:30;;;;;;;;;;;;;;;19.46;39.77;100869.16;4941341;28;98483;-79
2023/05/06 12:45:11;;;;;;;;;;;;;;;19.52;39.67;100871.38;4951529;28;98485;-78
2023/05/06 12:47:38;;;;;;;;;;;;;;;19.57;39.65;100870.44;4942434;28;98084;-79